createdAt,value
2022-09-27T00:02:32.172Z,1.90
2022-09-27T00:06:41.169Z,2.17
2022-09-27T00:10:49.790Z,2.77
2022-09-27T00:14:58.372Z,2.13
2022-09-27T00:19:09.938Z,2.40
2022-09-27T00:23:18.538Z,2.73
2022-09-27T00:27:46.429Z,3.03
2022-09-27T00:31:55.668Z,3.10
2022-09-27T00:36:07.727Z,2.90
2022-09-27T00:40:19.648Z,3.10
2022-09-27T00:44:31.871Z,3.63
2022-09-27T00:48:41.071Z,4.17
2022-09-27T00:53:07.321Z,3.97
2022-09-27T00:57:15.900Z,3.63
2022-09-27T01:01:24.778Z,3.33
2022-09-27T01:16:14.824Z,3.07
2022-09-27T01:21:01.610Z,2.80
2022-09-27T01:25:33.921Z,2.73
2022-09-27T01:30:03.526Z,2.50
2022-09-27T01:34:29.566Z,2.77
2022-09-27T01:38:50.107Z,3.03
2022-09-27T01:43:07.324Z,2.80
2022-09-27T01:47:22.043Z,2.50
2022-09-27T01:51:33.965Z,3.50
2022-09-27T01:56:03.392Z,3.20
2022-09-27T02:00:13.892Z,3.43
2022-09-27T02:04:27.948Z,2.80
2022-09-27T02:08:57.947Z,3.17
2022-09-27T02:13:15.492Z,3.17
2022-09-27T02:17:33.039Z,3.00
2022-09-27T02:22:02.847Z,3.40
2022-09-27T02:26:23.408Z,2.80
2022-09-27T02:30:32.382Z,3.40
2022-09-27T02:34:42.118Z,3.47
2022-09-27T02:38:51.319Z,3.40
2022-09-27T02:43:00.721Z,3.50
2022-09-27T02:47:45.568Z,3.53
2022-09-27T02:52:09.346Z,3.37
2022-09-27T02:56:32.994Z,3.77
2022-09-27T03:01:02.795Z,3.93
2022-09-27T03:05:32.261Z,3.17
2022-09-27T03:09:49.922Z,3.10
2022-09-27T03:14:08.791Z,3.23
2022-09-27T03:18:09.256Z,3.57
2022-09-27T03:22:19.238Z,3.27
2022-09-27T03:26:27.794Z,2.53
2022-09-27T03:30:36.476Z,2.90
2022-09-27T03:35:04.478Z,3.10
2022-09-27T03:39:13.066Z,2.50
2022-09-27T03:43:21.793Z,2.47
2022-09-27T03:47:30.362Z,2.70
2022-09-27T03:51:38.920Z,2.40
2022-09-27T03:55:48.076Z,2.57
2022-09-27T03:59:56.626Z,2.20
2022-09-27T04:04:10.951Z,2.27
2022-09-27T04:08:16.280Z,2.37
2022-09-27T04:12:24.796Z,2.00
2022-09-27T04:16:34.372Z,2.23
2022-09-27T04:20:43.152Z,2.40
2022-09-27T04:24:51.698Z,1.77
2022-09-27T04:29:00.496Z,2.53
2022-09-27T04:33:09.159Z,2.30
2022-09-27T04:37:17.697Z,1.80
2022-09-27T04:41:28.071Z,2.50
2022-09-27T04:45:36.613Z,2.07
2022-09-27T04:49:45.503Z,2.57
2022-09-27T04:53:54.523Z,2.10
2022-09-27T04:58:03.068Z,1.60
2022-09-27T05:02:11.846Z,1.93
2022-09-27T05:06:20.787Z,1.83
2022-09-27T05:10:29.346Z,2.20
2022-09-27T05:14:57.328Z,2.03
2022-09-27T05:19:05.971Z,2.20
2022-09-27T05:23:33.970Z,2.10
2022-09-27T05:27:42.588Z,2.90
2022-09-27T05:31:51.155Z,2.03
2022-09-27T05:35:59.738Z,2.07
2022-09-27T05:40:29.247Z,2.13
2022-09-27T05:44:18.967Z,2.20
2022-09-27T05:48:28.798Z,2.33
2022-09-27T05:52:37.356Z,2.30
2022-09-27T05:56:45.926Z,1.93
2022-09-27T06:00:54.505Z,2.10
2022-09-27T06:05:03.729Z,1.83
2022-09-27T06:09:13.979Z,2.00
2022-09-27T06:13:22.553Z,2.00
2022-09-27T06:17:31.108Z,2.13
2022-09-27T06:21:39.656Z,2.07
2022-09-27T06:25:50.387Z,2.00
2022-09-27T06:29:59.016Z,2.07
2022-09-27T06:34:27.979Z,1.77
2022-09-27T06:38:36.831Z,1.87
2022-09-27T06:42:45.582Z,1.80
2022-09-27T06:46:55.161Z,1.60
2022-09-27T06:51:03.742Z,1.60
2022-09-27T06:55:12.303Z,2.50
2022-09-27T06:59:38.587Z,1.60
2022-09-27T07:03:51.693Z,1.63
2022-09-27T07:08:01.363Z,1.87
2022-09-27T07:12:12.014Z,1.87
2022-09-27T07:16:20.636Z,2.17
2022-09-27T07:20:31.976Z,2.30
2022-09-27T07:25:00.831Z,2.00
2022-09-27T07:29:09.430Z,1.90
2022-09-27T07:33:18.054Z,2.00
2022-09-27T07:37:26.800Z,1.83
2022-09-27T07:41:35.372Z,1.83
2022-09-27T07:45:43.999Z,2.23
2022-09-27T07:50:11.848Z,1.97
2022-09-27T07:54:20.619Z,1.73
2022-09-27T07:58:48.536Z,1.90
2022-09-27T08:02:57.362Z,1.50
2022-09-27T08:07:06.101Z,1.90
2022-09-27T08:11:17.268Z,1.90
2022-09-27T08:15:25.893Z,2.07
2022-09-27T08:19:34.463Z,1.70
2022-09-27T08:23:43.079Z,1.77
2022-09-27T08:27:59.285Z,2.20
2022-09-27T08:32:09.409Z,1.83
2022-09-27T08:36:19.336Z,2.20
2022-09-27T08:40:32.089Z,1.90
2022-09-27T08:45:02.947Z,1.83
2022-09-27T08:49:17.154Z,2.13
2022-09-27T08:53:28.792Z,2.20
2022-09-27T08:57:38.277Z,2.20
2022-09-27T09:01:46.878Z,1.87
2022-09-27T09:06:07.457Z,1.70
2022-09-27T09:10:52.036Z,1.83
2022-09-27T09:15:15.858Z,2.40
2022-09-27T09:19:44.141Z,2.80
2022-09-27T09:24:13.629Z,1.97
2022-09-27T09:28:42.400Z,2.57
2022-09-27T09:33:21.858Z,2.50
2022-09-27T09:37:39.212Z,2.60
2022-09-27T09:41:56.684Z,2.80
2022-09-27T09:46:17.406Z,2.70
2022-09-27T09:50:32.864Z,2.43
2022-09-27T09:54:50.780Z,3.10
2022-09-27T09:59:02.811Z,2.80
2022-09-27T10:03:11.389Z,3.40
2022-09-27T10:07:24.684Z,3.20
2022-09-27T10:11:39.063Z,3.03
2022-09-27T10:15:53.393Z,4.17
2022-09-27T10:20:08.043Z,3.23
2022-09-27T10:24:20.206Z,2.90
2022-09-27T10:28:37.277Z,2.60
2022-09-27T10:32:49.105Z,2.57
2022-09-27T10:37:19.361Z,2.70
2022-09-27T10:41:39.557Z,2.47
2022-09-27T10:45:48.814Z,2.73
2022-09-27T10:50:13.431Z,2.73
2022-09-27T10:54:24.275Z,2.90
2022-09-27T10:58:35.802Z,2.80
2022-09-27T11:02:44.423Z,2.90
2022-09-27T11:06:53.101Z,3.50
2022-09-27T11:11:10.708Z,3.70
2022-09-27T11:15:43.118Z,4.07
2022-09-27T11:20:16.619Z,3.70
2022-09-27T11:24:49.308Z,3.80
2022-09-27T11:29:03.820Z,3.30
2022-09-27T11:33:33.355Z,4.53
2022-09-27T11:37:54.538Z,4.53
2022-09-27T11:42:16.463Z,4.13
2022-09-27T11:46:42.093Z,4.50
2022-09-27T11:50:53.587Z,3.43
2022-09-27T11:55:35.215Z,3.10
2022-09-27T12:00:06.344Z,3.93
2022-09-27T12:04:40.141Z,4.30
2022-09-27T12:09:04.013Z,3.53
2022-09-27T12:13:15.567Z,3.77
2022-09-27T12:17:31.103Z,3.43
2022-09-27T12:21:41.186Z,3.73
2022-09-27T12:25:54.087Z,3.83
2022-09-27T12:30:03.401Z,3.27
2022-09-27T12:34:31.775Z,2.90
2022-09-27T12:38:58.074Z,3.33
2022-09-27T12:43:15.300Z,2.70
2022-09-27T12:47:27.035Z,2.30
2022-09-27T12:51:54.828Z,2.47
2022-09-27T12:56:34.469Z,3.00
2022-09-27T13:00:48.653Z,3.10
2022-09-27T13:05:15.322Z,3.10
2022-09-27T13:09:46.250Z,3.52
2022-09-27T13:14:00.792Z,2.50
2022-09-27T13:18:28.892Z,2.40
2022-09-27T13:22:39.234Z,2.30
2022-09-27T13:26:50.306Z,2.53
2022-09-27T13:31:03.169Z,1.73
2022-09-27T13:35:27.135Z,2.00
2022-09-27T13:39:35.674Z,1.83
2022-09-27T13:43:53.748Z,1.77
2022-09-27T13:48:05.446Z,1.67
2022-09-27T13:52:22.858Z,1.60
2022-09-27T13:56:48.234Z,2.00
2022-09-27T14:01:03.201Z,1.80
2022-09-27T14:05:15.157Z,1.70
2022-09-27T14:09:26.811Z,1.60
2022-09-27T14:13:35.887Z,1.77
2022-09-27T14:17:45.845Z,1.90
2022-09-27T14:21:54.772Z,2.20
2022-09-27T14:26:04.194Z,1.70
2022-09-27T14:30:21.827Z,1.90
2022-09-27T14:34:30.480Z,1.70
2022-09-27T14:38:41.401Z,1.80
2022-09-27T14:42:55.720Z,1.70
2022-09-27T14:47:26.233Z,1.80
2022-09-27T14:51:35.574Z,1.90
2022-09-27T14:55:46.027Z,1.93
2022-09-27T14:59:56.872Z,1.73
2022-09-27T15:04:11.326Z,1.80
2022-09-27T15:08:22.978Z,1.97
2022-09-27T15:12:32.086Z,2.00
2022-09-27T15:16:42.249Z,2.03
2022-09-27T15:20:56.899Z,2.00
2022-09-27T15:25:20.916Z,2.47
2022-09-27T15:29:29.632Z,2.20
2022-09-27T15:33:38.320Z,2.30
2022-09-27T15:37:46.958Z,2.03
2022-09-27T15:42:07.448Z,2.17
2022-09-27T15:46:28.155Z,2.23
2022-09-27T15:50:56.094Z,2.20
2022-09-27T15:55:04.819Z,2.00
2022-09-27T15:59:22.596Z,1.73
2022-09-27T16:03:31.230Z,2.30
2022-09-27T16:07:40.078Z,2.07
2022-09-27T16:11:49.973Z,2.60
2022-09-27T16:15:59.218Z,2.37
2022-09-27T16:20:09.050Z,2.63
2022-09-27T16:24:17.867Z,2.10
2022-09-27T16:28:26.622Z,2.30
2022-09-27T16:32:36.008Z,2.10
2022-09-27T16:36:44.735Z,2.20
2022-09-27T16:40:53.434Z,2.30
2022-09-27T16:45:07.400Z,2.37
2022-09-27T16:49:30.681Z,2.50
2022-09-27T16:53:39.526Z,2.07
2022-09-27T16:57:49.640Z,2.30
2022-09-27T17:01:58.699Z,2.60
2022-09-27T17:06:07.545Z,2.50
2022-09-27T17:10:17.186Z,2.17
2022-09-27T17:14:27.227Z,2.50
2022-09-27T17:18:35.793Z,2.30
2022-09-27T17:22:44.452Z,2.53
2022-09-27T17:26:53.467Z,2.23
2022-09-27T17:31:08.732Z,2.23
2022-09-27T17:35:17.376Z,2.40
2022-09-27T17:39:25.954Z,2.07
2022-09-27T17:43:36.406Z,2.53
2022-09-27T17:48:03.087Z,2.30
2022-09-27T17:52:11.800Z,2.50
2022-09-27T17:56:20.453Z,2.57
2022-09-27T18:00:30.768Z,2.50
2022-09-27T18:04:39.398Z,2.43
2022-09-27T18:08:48.016Z,2.73
2022-09-27T18:12:56.526Z,2.57
2022-09-27T18:17:05.171Z,3.00
2022-09-27T18:21:16.541Z,3.20
2022-09-27T18:25:25.331Z,2.50
2022-09-27T18:29:33.925Z,2.83
2022-09-27T18:33:42.873Z,3.17
2022-09-27T18:37:51.431Z,2.60
2022-09-27T18:42:00.126Z,2.60
2022-09-27T18:46:33.978Z,2.73
2022-09-27T18:50:21.886Z,3.27
2022-09-27T18:54:30.460Z,3.50
2022-09-27T18:58:40.453Z,2.83
2022-09-27T19:02:52.023Z,3.07
2022-09-27T19:07:00.658Z,2.93
2022-09-27T19:11:15.238Z,2.40
2022-09-27T19:15:25.597Z,2.90
2022-09-27T19:19:34.168Z,3.53
2022-09-27T19:23:43.083Z,3.40
2022-09-27T19:27:52.754Z,2.93
2022-09-27T19:32:01.392Z,3.30
2022-09-27T19:36:12.425Z,2.73
2022-09-27T19:40:21.133Z,3.63
2022-09-27T19:44:31.190Z,3.20
2022-09-27T19:48:40.129Z,3.50
2022-09-27T19:52:49.875Z,3.77
2022-09-27T19:56:58.460Z,3.40
2022-09-27T20:01:09.438Z,3.47
2022-09-27T20:05:18.682Z,2.80
2022-09-27T20:09:27.278Z,3.30
2022-09-27T20:13:37.404Z,3.07
2022-09-27T20:17:45.973Z,2.60
2022-09-27T20:21:54.820Z,2.90
2022-09-27T20:26:05.481Z,2.43
2022-09-27T20:30:15.252Z,2.67
2022-09-27T20:34:24.102Z,2.30
2022-09-27T20:38:32.853Z,2.60
2022-09-27T20:42:41.470Z,2.50
2022-09-27T20:46:50.126Z,3.00
2022-09-27T20:51:04.421Z,2.23
2022-09-27T20:55:12.405Z,2.87
2022-09-27T20:59:41.350Z,2.77
2022-09-27T21:03:52.261Z,2.75
2022-09-27T21:08:00.932Z,2.30
2022-09-27T21:12:09.491Z,2.90
2022-09-27T21:16:21.066Z,2.60
2022-09-27T21:20:30.180Z,2.50
2022-09-27T21:24:38.782Z,2.30
2022-09-27T21:28:52.725Z,2.20
2022-09-27T21:33:01.664Z,2.07
2022-09-27T21:37:10.243Z,2.23
2022-09-27T21:41:19.355Z,2.40
2022-09-27T21:45:27.906Z,2.37
2022-09-27T21:49:36.475Z,2.37
2022-09-27T21:53:47.621Z,2.83
2022-09-27T21:58:15.545Z,2.70
2022-09-27T22:02:24.239Z,2.77
2022-09-27T22:06:34.995Z,2.90
2022-09-27T22:10:45.863Z,2.70
2022-09-27T22:14:54.423Z,3.37
2022-09-27T22:19:03.070Z,3.17
2022-09-27T22:23:11.972Z,2.90
2022-09-27T22:27:20.530Z,3.67
2022-09-27T22:31:29.118Z,3.08
2022-09-27T22:35:37.668Z,2.70
2022-09-27T22:39:46.250Z,3.27
2022-09-27T22:43:54.840Z,2.70
2022-09-27T22:48:03.483Z,2.97
2022-09-27T22:52:12.118Z,3.17
2022-09-27T22:56:31.285Z,2.53
2022-09-27T23:00:41.901Z,2.93
2022-09-27T23:04:50.426Z,3.00
2022-09-27T23:09:18.533Z,2.77
2022-09-27T23:13:30.207Z,2.70
2022-09-27T23:17:38.907Z,3.47
2022-09-27T23:21:47.745Z,3.30
2022-09-27T23:26:01.324Z,3.40
2022-09-27T23:30:31.298Z,3.27
2022-09-27T23:34:59.282Z,3.13
2022-09-27T23:39:07.936Z,3.10
2022-09-27T23:43:17.458Z,3.17
2022-09-27T23:47:26.025Z,3.60
2022-09-27T23:51:34.585Z,3.03
2022-09-27T23:55:43.157Z,3.23
2022-09-27T23:59:51.744Z,3.37
